createdAt,value
2023-04-22T00:03:32.907Z,7.05
2023-04-22T00:13:56.991Z,5.97
2023-04-22T00:24:18.952Z,6.20
2023-04-22T00:34:43.176Z,5.95
2023-04-22T00:45:12.045Z,5.85
2023-04-22T00:55:35.635Z,6.15
2023-04-22T01:05:59.308Z,6.55
2023-04-22T01:16:23.871Z,5.63
2023-04-22T01:26:47.692Z,6.68
2023-04-22T01:37:10.586Z,6.13
2023-04-22T01:47:35.477Z,5.93
2023-04-22T01:58:01.091Z,6.05
2023-04-22T02:08:25.855Z,5.95
2023-04-22T02:18:47.119Z,6.35
2023-04-22T02:29:10.285Z,6.07
2023-04-22T02:39:31.581Z,7.07
2023-04-22T02:49:54.842Z,7.18
2023-04-22T03:00:16.671Z,6.30
2023-04-22T03:10:39.552Z,7.43
2023-04-22T03:21:01.951Z,6.80
2023-04-22T03:31:25.189Z,7.43
2023-04-22T03:41:52.710Z,6.57
2023-04-22T03:52:17.342Z,7.40
2023-04-22T04:02:47.052Z,6.68
2023-04-22T04:13:13.942Z,7.83
2023-04-22T04:23:50.987Z,7.07
2023-04-22T04:34:17.855Z,7.75
2023-04-22T04:44:44.642Z,7.25
2023-04-22T04:55:08.603Z,6.83
2023-04-22T05:05:30.940Z,7.03
2023-04-22T05:15:54.461Z,7.68
2023-04-22T05:26:19.065Z,6.60
2023-04-22T05:47:09.922Z,5.85
2023-04-22T05:57:33.065Z,6.50
2023-04-22T06:18:22.260Z,7.30
2023-04-22T06:28:44.006Z,7.03
2023-04-22T06:39:13.249Z,7.20
2023-04-22T06:49:54.188Z,6.75
2023-04-22T07:00:22.499Z,7.18
2023-04-22T07:10:45.204Z,7.38
2023-04-22T07:21:22.927Z,6.88
2023-04-22T07:31:45.295Z,7.53
2023-04-22T07:42:08.288Z,6.60
2023-04-22T07:52:30.607Z,6.63
2023-04-22T08:02:54.853Z,6.57
2023-04-22T08:13:18.201Z,6.50
2023-04-22T08:23:41.337Z,7.05
2023-04-22T08:34:02.703Z,6.93
2023-04-22T08:44:25.684Z,5.25
2023-04-22T08:54:47.056Z,6.50
2023-04-22T09:05:11.585Z,5.78
2023-04-22T09:15:34.621Z,5.97
2023-04-22T09:26:02.576Z,5.50
2023-04-22T09:36:24.792Z,5.30
2023-04-22T09:46:50.944Z,4.88
2023-04-22T09:57:15.245Z,5.05
2023-04-22T10:07:40.185Z,5.22
2023-04-22T10:18:04.095Z,4.80
2023-04-22T10:28:30.113Z,5.40
2023-04-22T10:39:17.820Z,4.78
2023-04-22T10:49:41.156Z,4.47
2023-04-22T11:00:52.231Z,4.82
2023-04-22T11:11:18.593Z,5.13
2023-04-22T11:21:40.570Z,4.63
2023-04-22T11:32:04.570Z,5.30
2023-04-22T11:42:27.663Z,5.32
2023-04-22T11:52:53.108Z,5.37
2023-04-22T12:03:16.413Z,6.90
2023-04-22T12:13:45.583Z,10.95
2023-04-22T12:24:10.473Z,4.50
2023-04-22T12:34:33.307Z,21.63
2023-04-22T12:44:54.957Z,5.55
2023-04-22T12:55:17.927Z,4.93
2023-04-22T13:05:39.841Z,4.95
2023-04-22T13:16:03.189Z,5.22
2023-04-22T13:26:24.872Z,5.40
2023-04-22T13:36:48.191Z,5.38
2023-04-22T13:47:09.603Z,4.97
2023-04-22T14:07:55.913Z,4.32
2023-04-22T14:18:18.827Z,4.27
2023-04-22T14:28:42.097Z,4.43
2023-04-22T14:39:07.221Z,5.22
2023-04-22T14:49:28.669Z,4.50
2023-04-22T14:59:51.518Z,5.63
2023-04-22T15:10:14.270Z,4.65
2023-04-22T15:20:37.553Z,4.68
2023-04-22T15:30:59.149Z,4.85
2023-04-22T15:41:22.032Z,4.88
2023-04-22T15:51:43.379Z,4.40
2023-04-22T16:02:07.296Z,5.53
2023-04-22T16:12:30.468Z,4.22
2023-04-22T16:22:54.159Z,4.82
2023-04-22T16:33:16.464Z,4.43
2023-04-22T16:43:41.407Z,5.83
2023-04-22T16:54:03.369Z,5.80
2023-04-22T17:04:26.403Z,5.65
2023-04-22T17:14:49.010Z,6.30
2023-04-22T17:25:12.287Z,6.10
2023-04-22T17:35:33.654Z,6.10
2023-04-22T17:45:56.847Z,6.40
2023-04-22T17:56:18.910Z,9.48
2023-04-22T18:06:42.188Z,28.23
2023-04-22T18:17:04.359Z,19.15
2023-04-22T18:27:27.351Z,11.02
2023-04-22T18:37:49.060Z,9.25
2023-04-22T18:48:11.875Z,9.65
2023-04-22T18:58:33.534Z,10.02
2023-04-22T19:08:57.363Z,15.00
2023-04-22T19:19:19.041Z,9.82
2023-04-22T19:29:42.479Z,15.57
2023-04-22T19:40:06.922Z,13.50
2023-04-22T19:50:30.427Z,12.90
2023-04-22T20:00:52.838Z,20.30
2023-04-22T20:11:18.815Z,14.82
2023-04-22T20:21:41.017Z,21.63
2023-04-22T20:32:05.069Z,23.40
2023-04-22T20:42:26.712Z,11.88
2023-04-22T20:52:49.799Z,11.77
2023-04-22T21:03:11.488Z,10.95
2023-04-22T21:13:35.153Z,11.43
2023-04-22T21:23:56.785Z,10.95
2023-04-22T21:34:20.870Z,10.88
2023-04-22T21:44:49.350Z,9.48
2023-04-22T21:55:12.554Z,10.38
2023-04-22T22:05:34.023Z,8.85
2023-04-22T22:15:57.434Z,8.50
2023-04-22T22:26:20.294Z,7.57
2023-04-22T22:36:43.383Z,7.13
2023-04-22T22:47:05.979Z,7.20
2023-04-22T22:57:28.709Z,7.50
2023-04-22T23:07:50.319Z,6.72
2023-04-22T23:18:16.980Z,7.53
2023-04-22T23:28:38.873Z,7.50
2023-04-22T23:39:01.874Z,7.72
2023-04-22T23:49:23.392Z,7.78
2023-04-22T23:59:46.896Z,7.95
